createdAt,value
2023-01-15T00:00:15.046Z,55.35
2023-01-15T00:01:15.041Z,48.06
2023-01-15T00:02:15.058Z,45.67
2023-01-15T00:03:15.766Z,45.72
2023-01-15T00:04:15.101Z,52.76
2023-01-15T00:05:15.002Z,51.26
2023-01-15T00:06:14.988Z,47.83
2023-01-15T00:07:14.999Z,45.78
2023-01-15T00:08:15.011Z,46.36
2023-01-15T00:09:14.981Z,49.49
2023-01-15T00:10:14.964Z,55.77
2023-01-15T00:11:15.713Z,43.29
2023-01-15T00:12:14.946Z,52.25
2023-01-15T00:13:14.980Z,47.63
2023-01-15T00:14:14.976Z,46.31
2023-01-15T00:15:14.941Z,42.34
2023-01-15T00:16:15.024Z,47.63
2023-01-15T00:17:14.976Z,46.39
2023-01-15T00:18:15.018Z,46.12
2023-01-15T00:19:14.970Z,46.48
2023-01-15T00:20:14.922Z,43.59
2023-01-15T00:21:14.874Z,42.72
2023-01-15T00:22:14.867Z,51.23
2023-01-15T00:23:14.868Z,46.82
2023-01-15T00:24:14.881Z,43.04
2023-01-15T00:25:14.853Z,47.38
2023-01-15T00:26:14.845Z,46.67
2023-01-15T00:27:14.840Z,58.94
2023-01-15T00:28:14.820Z,50.25
2023-01-15T00:29:14.876Z,48.72
2023-01-15T00:30:14.810Z,46.67
2023-01-15T00:31:14.856Z,42.54
2023-01-15T00:32:14.795Z,43.60
2023-01-15T00:33:14.791Z,56.53
2023-01-15T00:34:14.807Z,51.18
2023-01-15T00:35:14.778Z,45.16
2023-01-15T00:36:14.770Z,50.01
2023-01-15T00:37:14.752Z,45.66
2023-01-15T00:38:14.758Z,45.08
2023-01-15T00:39:14.792Z,47.69
2023-01-15T00:40:14.739Z,46.41
2023-01-15T00:41:14.729Z,42.82
2023-01-15T00:42:14.727Z,45.33
2023-01-15T00:43:14.712Z,42.19
2023-01-15T00:44:14.705Z,44.59
2023-01-15T00:45:14.722Z,46.70
2023-01-15T00:46:14.729Z,46.50
2023-01-15T00:47:14.713Z,43.61
2023-01-15T00:48:14.670Z,42.06
2023-01-15T00:49:14.714Z,42.19
2023-01-15T00:50:14.847Z,43.73
2023-01-15T00:51:14.644Z,46.42
2023-01-15T00:52:14.639Z,47.02
2023-01-15T00:53:14.646Z,47.70
2023-01-15T00:54:14.625Z,43.11
2023-01-15T00:55:14.660Z,44.08
2023-01-15T00:56:14.629Z,44.44
2023-01-15T00:57:14.614Z,46.64
2023-01-15T00:58:14.603Z,45.73
2023-01-15T00:59:14.607Z,50.97
2023-01-15T01:00:14.628Z,47.24
2023-01-15T01:01:14.638Z,51.78
2023-01-15T01:02:14.678Z,48.78
2023-01-15T01:03:14.580Z,48.57
2023-01-15T01:04:14.555Z,45.62
2023-01-15T01:05:14.586Z,51.29
2023-01-15T01:06:15.102Z,48.22
2023-01-15T01:07:14.543Z,46.50
2023-01-15T01:08:14.526Z,44.17
2023-01-15T01:09:14.520Z,54.36
2023-01-15T01:10:14.544Z,47.60
2023-01-15T01:11:14.508Z,45.74
2023-01-15T01:12:14.514Z,48.42
2023-01-15T01:13:14.494Z,45.05
2023-01-15T01:14:14.485Z,45.72
2023-01-15T01:15:14.513Z,45.80
2023-01-15T01:16:14.493Z,43.85
2023-01-15T01:17:14.458Z,45.32
2023-01-15T01:18:14.448Z,47.51
2023-01-15T01:19:14.438Z,49.22
2023-01-15T01:20:14.491Z,43.72
2023-01-15T01:21:14.428Z,47.30
2023-01-15T01:22:14.425Z,44.62
2023-01-15T01:23:14.414Z,45.03
2023-01-15T01:24:14.429Z,46.14
2023-01-15T01:25:14.427Z,48.66
2023-01-15T01:26:14.405Z,49.05
2023-01-15T01:27:14.391Z,48.09
2023-01-15T01:28:14.372Z,58.38
2023-01-15T01:29:14.364Z,48.32
2023-01-15T01:30:14.388Z,46.25
2023-01-15T01:31:14.376Z,47.46
2023-01-15T01:32:14.355Z,43.70
2023-01-15T01:33:14.358Z,50.29
2023-01-15T01:34:14.341Z,55.59
2023-01-15T01:35:14.351Z,45.53
2023-01-15T01:36:14.347Z,42.63
2023-01-15T01:37:14.305Z,42.81
2023-01-15T01:38:14.305Z,46.07
2023-01-15T01:39:14.300Z,43.55
2023-01-15T01:40:14.291Z,43.97
2023-01-15T01:41:14.302Z,43.98
2023-01-15T01:42:14.273Z,46.78
2023-01-15T01:43:14.263Z,45.72
2023-01-15T01:44:14.255Z,44.98
2023-01-15T01:45:14.249Z,46.76
2023-01-15T01:46:14.258Z,49.27
2023-01-15T01:47:14.227Z,49.50
2023-01-15T01:48:14.229Z,50.31
2023-01-15T01:49:14.240Z,50.13
2023-01-15T01:50:14.206Z,49.47
2023-01-15T01:51:14.226Z,50.72
2023-01-15T01:52:14.224Z,48.88
2023-01-15T01:53:14.189Z,48.74
2023-01-15T01:54:14.213Z,47.28
2023-01-15T01:55:14.178Z,46.80
2023-01-15T01:56:14.201Z,48.07
2023-01-15T01:57:14.156Z,48.83
2023-01-15T01:58:14.173Z,45.86
2023-01-15T01:59:14.130Z,50.19
2023-01-15T02:00:14.134Z,49.62
2023-01-15T02:01:14.313Z,45.57
2023-01-15T02:02:14.236Z,44.28
2023-01-15T02:03:14.113Z,46.46
2023-01-15T02:04:14.104Z,46.99
2023-01-15T02:05:14.098Z,48.66
2023-01-15T02:06:14.117Z,46.20
2023-01-15T02:07:14.076Z,44.26
2023-01-15T02:08:14.064Z,44.52
2023-01-15T02:09:14.064Z,47.92
2023-01-15T02:10:14.064Z,47.06
2023-01-15T02:11:14.075Z,45.68
2023-01-15T02:12:14.047Z,46.75
2023-01-15T02:13:14.039Z,54.69
2023-01-15T02:14:14.024Z,47.42
2023-01-15T02:15:14.035Z,45.28
2023-01-15T02:16:14.057Z,47.58
2023-01-15T02:17:14.037Z,46.16
2023-01-15T02:18:13.991Z,44.78
2023-01-15T02:19:14.010Z,45.93
2023-01-15T02:20:13.978Z,42.87
2023-01-15T02:21:13.999Z,44.48
2023-01-15T02:22:13.965Z,45.43
2023-01-15T02:23:13.956Z,44.80
2023-01-15T02:24:13.951Z,47.14
2023-01-15T02:25:13.940Z,44.01
2023-01-15T02:26:13.954Z,45.35
2023-01-15T02:27:13.921Z,45.27
2023-01-15T02:28:13.916Z,48.18
2023-01-15T02:29:13.936Z,50.77
2023-01-15T02:30:13.937Z,45.22
2023-01-15T02:31:13.974Z,46.94
2023-01-15T02:32:13.881Z,47.13
2023-01-15T02:33:13.890Z,45.75
2023-01-15T02:34:13.869Z,45.59
2023-01-15T02:35:13.865Z,43.89
2023-01-15T02:36:13.875Z,47.70
2023-01-15T02:37:13.852Z,47.35
2023-01-15T02:38:13.839Z,46.03
2023-01-15T02:39:13.823Z,43.93
2023-01-15T02:40:13.818Z,45.49
2023-01-15T02:41:13.814Z,46.83
2023-01-15T02:42:13.831Z,44.11
2023-01-15T02:43:13.802Z,44.07
2023-01-15T02:44:13.795Z,47.16
2023-01-15T02:45:13.788Z,45.01
2023-01-15T02:46:13.778Z,45.18
2023-01-15T02:47:13.792Z,43.60
2023-01-15T02:48:13.764Z,49.04
2023-01-15T02:49:13.752Z,44.37
2023-01-15T02:50:13.735Z,43.91
2023-01-15T02:51:13.754Z,46.09
2023-01-15T02:52:13.753Z,44.70
2023-01-15T02:53:13.719Z,50.73
2023-01-15T02:54:13.734Z,48.91
2023-01-15T02:55:13.721Z,46.58
2023-01-15T02:56:13.701Z,43.38
2023-01-15T02:57:13.718Z,43.82
2023-01-15T02:58:13.701Z,49.97
2023-01-15T02:59:13.697Z,44.58
2023-01-15T03:00:13.674Z,43.89
2023-01-15T03:01:13.724Z,43.29
2023-01-15T03:02:13.848Z,43.24
2023-01-15T03:03:13.651Z,43.25
2023-01-15T03:04:13.659Z,46.40
2023-01-15T03:05:13.634Z,43.02
2023-01-15T03:06:13.607Z,43.22
2023-01-15T03:07:13.645Z,44.87
2023-01-15T03:08:13.609Z,43.69
2023-01-15T03:09:13.592Z,44.53
2023-01-15T03:10:13.595Z,42.85
2023-01-15T03:11:13.593Z,45.50
2023-01-15T03:12:13.599Z,44.63
2023-01-15T03:13:13.563Z,50.88
2023-01-15T03:14:13.560Z,47.11
2023-01-15T03:15:13.591Z,49.25
2023-01-15T03:16:13.592Z,47.48
2023-01-15T03:17:13.567Z,43.04
2023-01-15T03:18:13.525Z,44.36
2023-01-15T03:19:14.551Z,44.99
2023-01-15T03:20:13.502Z,44.57
2023-01-15T03:21:13.505Z,46.95
2023-01-15T03:22:13.513Z,46.18
2023-01-15T03:23:13.504Z,46.22
2023-01-15T03:24:13.563Z,42.10
2023-01-15T03:25:13.472Z,41.72
2023-01-15T03:26:13.463Z,41.66
2023-01-15T03:27:13.480Z,42.29
2023-01-15T03:28:14.458Z,56.06
2023-01-15T03:29:13.446Z,43.18
2023-01-15T03:30:13.464Z,44.19
2023-01-15T03:31:13.422Z,42.92
2023-01-15T03:32:13.445Z,53.12
2023-01-15T03:33:13.409Z,42.11
2023-01-15T03:34:13.402Z,55.00
2023-01-15T03:35:13.400Z,59.11
2023-01-15T03:36:13.390Z,57.62
2023-01-15T03:37:13.417Z,56.41
2023-01-15T03:38:13.379Z,56.54
2023-01-15T03:39:13.372Z,56.55
2023-01-15T03:40:13.379Z,56.46
2023-01-15T03:41:13.360Z,56.50
2023-01-15T03:42:13.367Z,56.46
2023-01-15T03:43:13.349Z,56.28
2023-01-15T03:44:13.332Z,56.27
2023-01-15T03:45:13.322Z,56.22
2023-01-15T03:46:13.327Z,55.84
2023-01-15T03:47:13.337Z,55.92
2023-01-15T03:48:13.297Z,55.74
2023-01-15T03:49:13.289Z,55.80
2023-01-15T03:50:13.283Z,55.78
2023-01-15T03:51:13.271Z,55.98
2023-01-15T03:52:13.320Z,50.41
2023-01-15T03:53:13.275Z,42.17
2023-01-15T03:54:13.285Z,47.33
2023-01-15T03:55:13.247Z,46.19
2023-01-15T03:56:13.240Z,42.99
2023-01-15T03:57:13.264Z,44.93
2023-01-15T03:58:13.228Z,48.18
2023-01-15T03:59:13.211Z,53.08
2023-01-15T04:00:13.210Z,46.38
2023-01-15T04:01:13.303Z,54.53
2023-01-15T04:02:13.290Z,47.82
2023-01-15T04:03:13.210Z,46.48
2023-01-15T04:04:13.206Z,43.83
2023-01-15T04:05:13.167Z,46.28
2023-01-15T04:06:13.168Z,44.82
2023-01-15T04:07:13.155Z,58.14
2023-01-15T04:08:13.175Z,45.27
2023-01-15T04:09:13.142Z,44.01
2023-01-15T04:10:13.135Z,43.96
2023-01-15T04:11:13.133Z,51.10
2023-01-15T04:12:13.121Z,45.16
2023-01-15T04:13:13.147Z,45.18
2023-01-15T04:14:13.101Z,47.01
2023-01-15T04:15:13.165Z,49.20
2023-01-15T04:16:13.085Z,51.44
2023-01-15T04:17:13.081Z,50.36
2023-01-15T04:18:13.096Z,43.32
2023-01-15T04:19:13.071Z,50.28
2023-01-15T04:20:13.075Z,48.63
2023-01-15T04:21:13.038Z,43.58
2023-01-15T04:22:13.053Z,45.89
2023-01-15T04:23:13.056Z,46.57
2023-01-15T04:24:13.019Z,47.40
2023-01-15T04:25:13.011Z,42.79
2023-01-15T04:26:13.017Z,43.23
2023-01-15T04:27:13.006Z,44.57
2023-01-15T04:28:13.025Z,47.17
2023-01-15T04:29:12.992Z,48.40
2023-01-15T04:30:12.997Z,46.39
2023-01-15T04:31:12.992Z,44.32
2023-01-15T04:32:12.954Z,47.06
2023-01-15T04:33:12.985Z,43.14
2023-01-15T04:34:12.944Z,46.37
2023-01-15T04:35:12.941Z,43.09
2023-01-15T04:36:12.926Z,45.70
2023-01-15T04:37:12.922Z,46.68
2023-01-15T04:38:12.947Z,46.53
2023-01-15T04:39:12.906Z,42.54
2023-01-15T04:40:12.905Z,43.87
2023-01-15T04:41:12.898Z,43.97
2023-01-15T04:42:12.885Z,53.67
2023-01-15T04:43:12.912Z,48.38
2023-01-15T04:44:12.863Z,46.21
2023-01-15T04:45:12.862Z,44.54
2023-01-15T04:46:12.890Z,46.11
2023-01-15T04:47:12.840Z,46.65
2023-01-15T04:48:12.871Z,50.06
2023-01-15T04:49:12.832Z,49.25
2023-01-15T04:50:12.824Z,42.48
2023-01-15T04:51:12.804Z,46.17
2023-01-15T04:52:12.797Z,43.68
2023-01-15T04:53:12.801Z,55.99
2023-01-15T04:54:12.815Z,43.23
2023-01-15T04:55:12.775Z,42.79
2023-01-15T04:56:12.768Z,42.93
2023-01-15T04:57:12.764Z,44.15
2023-01-15T04:58:12.749Z,54.89
2023-01-15T04:59:12.775Z,48.04
2023-01-15T05:00:12.736Z,44.86
2023-01-15T05:01:12.853Z,46.01
2023-01-15T05:02:15.121Z,44.33
2023-01-15T05:03:12.724Z,44.25
2023-01-15T05:04:12.771Z,46.05
2023-01-15T05:05:12.713Z,45.88
2023-01-15T05:06:12.703Z,48.22
2023-01-15T05:07:12.702Z,43.11
2023-01-15T05:08:12.683Z,43.28
2023-01-15T05:09:12.706Z,43.02
2023-01-15T05:10:12.670Z,57.03
2023-01-15T05:11:12.656Z,50.80
2023-01-15T05:12:12.656Z,44.18
2023-01-15T05:13:12.664Z,46.22
2023-01-15T05:14:12.659Z,42.73
2023-01-15T05:15:12.628Z,47.95
2023-01-15T05:16:12.706Z,45.99
2023-01-15T05:17:12.611Z,44.56
2023-01-15T05:18:12.601Z,44.88
2023-01-15T05:19:12.957Z,42.42
2023-01-15T05:20:12.599Z,42.61
2023-01-15T05:21:12.578Z,42.39
2023-01-15T05:22:12.578Z,44.11
2023-01-15T05:23:12.573Z,42.27
2023-01-15T05:24:12.591Z,43.74
2023-01-15T05:25:12.560Z,47.61
2023-01-15T05:26:12.548Z,45.64
2023-01-15T05:27:12.545Z,42.52
2023-01-15T05:28:12.536Z,43.71
2023-01-15T05:29:12.573Z,44.16
2023-01-15T05:30:12.531Z,45.46
2023-01-15T05:31:12.533Z,42.27
2023-01-15T05:32:12.503Z,44.30
2023-01-15T05:33:12.503Z,48.36
2023-01-15T05:34:12.521Z,44.89
2023-01-15T05:35:12.483Z,42.78
2023-01-15T05:36:12.475Z,48.79
2023-01-15T05:37:12.469Z,44.46
2023-01-15T05:38:12.462Z,46.60
2023-01-15T05:39:12.481Z,42.20
2023-01-15T05:40:12.444Z,44.26
2023-01-15T05:41:12.447Z,44.81
2023-01-15T05:42:12.436Z,55.45
2023-01-15T05:43:12.424Z,45.66
2023-01-15T05:44:12.444Z,44.33
2023-01-15T05:45:12.414Z,42.30
2023-01-15T05:46:12.458Z,42.26
2023-01-15T05:47:12.413Z,43.91
2023-01-15T05:48:12.385Z,43.19
2023-01-15T05:49:12.418Z,46.66
2023-01-15T05:50:12.374Z,46.24
2023-01-15T05:51:12.369Z,45.24
2023-01-15T05:52:12.354Z,52.92
2023-01-15T05:53:12.349Z,48.72
2023-01-15T05:54:12.367Z,44.86
2023-01-15T05:55:12.336Z,44.79
2023-01-15T05:56:12.333Z,43.80
2023-01-15T05:57:12.319Z,45.09
2023-01-15T05:58:12.320Z,55.00
2023-01-15T05:59:12.334Z,46.23
2023-01-15T06:00:12.311Z,43.67
2023-01-15T06:01:12.326Z,52.24
2023-01-15T06:02:12.296Z,52.98
2023-01-15T06:03:12.278Z,49.86
2023-01-15T06:04:12.629Z,44.78
2023-01-15T06:05:12.267Z,42.24
2023-01-15T06:06:12.249Z,43.93
2023-01-15T06:07:12.242Z,46.66
2023-01-15T06:08:12.231Z,44.61
2023-01-15T06:09:12.262Z,41.69
2023-01-15T06:10:12.222Z,42.75
2023-01-15T06:11:12.208Z,48.06
2023-01-15T06:12:12.209Z,52.12
2023-01-15T06:13:12.188Z,41.90
2023-01-15T06:14:13.217Z,43.48
2023-01-15T06:15:12.182Z,46.56
2023-01-15T06:16:12.227Z,43.51
2023-01-15T06:17:12.177Z,56.83
2023-01-15T06:18:12.167Z,46.09
2023-01-15T06:19:12.187Z,53.04
2023-01-15T06:20:12.189Z,46.43
2023-01-15T06:21:12.174Z,42.84
2023-01-15T06:22:12.165Z,46.46
2023-01-15T06:23:12.124Z,43.73
2023-01-15T06:24:12.147Z,46.41
2023-01-15T06:25:12.112Z,42.29
2023-01-15T06:26:12.108Z,44.28
2023-01-15T06:27:12.095Z,46.46
2023-01-15T06:28:12.087Z,53.82
2023-01-15T06:29:12.079Z,42.28
2023-01-15T06:30:12.099Z,43.78
2023-01-15T06:31:12.100Z,57.14
2023-01-15T06:32:12.062Z,44.13
2023-01-15T06:33:12.055Z,41.89
2023-01-15T06:34:12.049Z,41.98
2023-01-15T06:35:12.062Z,44.97
2023-01-15T06:36:12.032Z,42.96
2023-01-15T06:37:12.025Z,44.16
2023-01-15T06:38:12.014Z,42.62
2023-01-15T06:39:12.018Z,44.24
2023-01-15T06:40:12.033Z,44.18
2023-01-15T06:41:11.991Z,43.74
2023-01-15T06:42:11.988Z,45.31
2023-01-15T06:43:11.985Z,42.08
2023-01-15T06:44:11.965Z,42.80
2023-01-15T06:45:12.004Z,47.99
2023-01-15T06:46:12.036Z,45.35
2023-01-15T06:47:11.948Z,42.00
2023-01-15T06:48:11.937Z,47.02
2023-01-15T06:49:11.935Z,45.09
2023-01-15T06:50:11.955Z,44.68
2023-01-15T06:51:11.916Z,44.76
2023-01-15T06:52:12.037Z,44.17
2023-01-15T06:53:11.904Z,43.98
2023-01-15T06:54:11.898Z,46.05
2023-01-15T06:55:11.917Z,48.76
2023-01-15T06:56:11.877Z,42.78
2023-01-15T06:57:11.896Z,45.37
2023-01-15T06:58:11.866Z,46.67
2023-01-15T06:59:12.629Z,46.84
2023-01-15T07:00:12.873Z,42.13
2023-01-15T07:01:11.907Z,45.76
2023-01-15T07:02:11.850Z,46.78
2023-01-15T07:03:11.831Z,47.46
2023-01-15T07:04:11.850Z,43.55
2023-01-15T07:05:11.834Z,53.91
2023-01-15T07:06:11.820Z,52.51
2023-01-15T07:07:11.802Z,44.16
2023-01-15T07:08:11.784Z,45.73
2023-01-15T07:09:11.788Z,48.49
2023-01-15T07:10:11.807Z,54.14
2023-01-15T07:11:11.770Z,46.92
2023-01-15T07:12:11.760Z,44.12
2023-01-15T07:13:11.761Z,44.62
2023-01-15T07:14:11.746Z,47.22
2023-01-15T07:15:11.769Z,56.30
2023-01-15T07:16:11.751Z,58.73
2023-01-15T07:17:11.726Z,60.00
2023-01-15T07:18:11.721Z,61.66
2023-01-15T07:19:11.713Z,61.20
2023-01-15T07:20:11.731Z,60.03
2023-01-15T07:21:11.703Z,60.50
2023-01-15T07:22:11.703Z,60.97
2023-01-15T07:23:11.684Z,60.04
2023-01-15T07:24:11.683Z,59.57
2023-01-15T07:25:11.701Z,59.82
2023-01-15T07:26:11.660Z,59.51
2023-01-15T07:27:11.649Z,59.95
2023-01-15T07:28:11.649Z,59.79
2023-01-15T07:29:11.639Z,59.96
2023-01-15T07:30:11.636Z,59.98
2023-01-15T07:31:11.673Z,59.99
2023-01-15T07:32:11.653Z,59.69
2023-01-15T07:33:11.613Z,57.44
2023-01-15T07:34:11.612Z,58.43
2023-01-15T07:35:11.595Z,58.23
2023-01-15T07:36:11.621Z,58.24
2023-01-15T07:37:11.619Z,60.44
2023-01-15T07:38:11.584Z,59.77
2023-01-15T07:39:11.569Z,58.29
2023-01-15T07:40:11.567Z,58.08
2023-01-15T07:41:11.579Z,57.60
2023-01-15T07:42:11.550Z,57.78
2023-01-15T07:43:11.540Z,59.33
2023-01-15T07:44:11.536Z,60.79
2023-01-15T07:45:11.529Z,58.48
2023-01-15T07:46:11.542Z,57.95
2023-01-15T07:47:11.503Z,58.00
2023-01-15T07:48:11.496Z,57.44
2023-01-15T07:49:11.477Z,57.16
2023-01-15T07:50:12.484Z,57.36
2023-01-15T07:51:11.500Z,57.05
2023-01-15T07:52:11.470Z,58.33
2023-01-15T07:53:11.464Z,58.11
2023-01-15T07:54:11.479Z,58.07
2023-01-15T07:55:11.447Z,58.36
2023-01-15T07:56:11.445Z,58.47
2023-01-15T07:57:11.444Z,59.46
2023-01-15T07:58:11.424Z,58.47
2023-01-15T07:59:11.439Z,59.40
2023-01-15T08:00:11.405Z,62.34
2023-01-15T08:01:11.637Z,58.42
2023-01-15T08:02:11.401Z,58.64
2023-01-15T08:03:11.390Z,59.46
2023-01-15T08:04:11.439Z,59.18
2023-01-15T08:05:11.373Z,58.79
2023-01-15T08:06:11.360Z,59.45
2023-01-15T08:07:11.351Z,61.49
2023-01-15T08:08:11.348Z,60.14
2023-01-15T08:09:11.364Z,57.51
2023-01-15T08:10:11.333Z,57.35
2023-01-15T08:11:11.317Z,57.01
2023-01-15T08:12:11.318Z,56.94
2023-01-15T08:13:11.309Z,59.36
2023-01-15T08:14:11.321Z,56.74
2023-01-15T08:15:11.291Z,54.11
2023-01-15T08:16:11.346Z,46.86
2023-01-15T08:17:11.277Z,45.38
2023-01-15T08:18:11.278Z,57.64
2023-01-15T08:19:11.283Z,49.04
2023-01-15T08:20:11.250Z,53.00
2023-01-15T08:21:11.241Z,47.56
2023-01-15T08:22:11.238Z,51.25
2023-01-15T08:23:11.230Z,47.60
2023-01-15T08:24:11.252Z,54.15
2023-01-15T08:25:11.213Z,47.38
2023-01-15T08:26:11.213Z,52.10
2023-01-15T08:27:11.194Z,49.92
2023-01-15T08:28:11.189Z,48.48
2023-01-15T08:29:11.212Z,48.76
2023-01-15T08:30:11.187Z,44.64
2023-01-15T08:31:11.178Z,47.19
2023-01-15T08:32:11.157Z,58.65
2023-01-15T08:33:11.158Z,50.47
2023-01-15T08:34:11.147Z,50.40
2023-01-15T08:35:11.174Z,52.62
2023-01-15T08:36:11.127Z,53.70
2023-01-15T08:37:11.120Z,51.77
2023-01-15T08:38:11.109Z,49.78
2023-01-15T08:39:11.106Z,48.93
2023-01-15T08:40:11.133Z,51.38
2023-01-15T08:41:11.085Z,53.49
2023-01-15T08:42:11.080Z,47.59
2023-01-15T08:43:11.075Z,48.96
2023-01-15T08:44:11.076Z,48.28
2023-01-15T08:45:11.101Z,53.58
2023-01-15T08:46:11.189Z,49.81
2023-01-15T08:47:11.049Z,51.21
2023-01-15T08:48:12.040Z,52.88
2023-01-15T08:49:11.056Z,48.93
2023-01-15T08:50:11.085Z,53.10
2023-01-15T08:51:11.013Z,49.94
2023-01-15T08:52:11.023Z,50.38
2023-01-15T08:53:11.003Z,52.26
2023-01-15T08:54:11.007Z,49.60
2023-01-15T08:55:11.020Z,47.48
2023-01-15T08:56:10.981Z,50.20
2023-01-15T08:57:10.972Z,48.70
2023-01-15T08:58:10.961Z,51.05
2023-01-15T08:59:10.974Z,49.32
2023-01-15T09:00:11.000Z,43.91
2023-01-15T09:01:11.043Z,51.53
2023-01-15T09:02:10.982Z,50.72
2023-01-15T09:03:10.941Z,49.53
2023-01-15T09:04:10.919Z,55.49
2023-01-15T09:05:10.939Z,55.61
2023-01-15T09:06:10.915Z,49.11
2023-01-15T09:07:10.930Z,57.14
2023-01-15T09:08:10.889Z,51.95
2023-01-15T09:09:10.892Z,48.58
2023-01-15T09:10:10.899Z,51.79
2023-01-15T09:11:10.861Z,53.72
2023-01-15T09:12:10.865Z,49.73
2023-01-15T09:13:10.860Z,50.77
2023-01-15T09:14:55.975Z,52.91
2023-01-15T09:15:11.861Z,46.07
2023-01-15T09:16:10.828Z,47.57
2023-01-15T09:17:10.819Z,51.39
2023-01-15T09:18:10.830Z,49.09
2023-01-15T09:19:10.809Z,49.65
2023-01-15T09:20:10.821Z,51.26
2023-01-15T09:21:10.797Z,51.56
2023-01-15T09:22:10.792Z,57.63
2023-01-15T09:23:10.783Z,49.91
2023-01-15T09:24:10.768Z,53.46
2023-01-15T09:25:10.829Z,50.81
2023-01-15T09:26:10.757Z,56.53
2023-01-15T09:27:10.744Z,53.81
2023-01-15T09:28:10.745Z,52.49
2023-01-15T09:29:10.790Z,51.95
2023-01-15T09:30:10.750Z,53.79
2023-01-15T09:31:10.727Z,51.12
2023-01-15T09:32:10.715Z,58.70
2023-01-15T09:33:10.714Z,55.65
2023-01-15T09:34:10.728Z,52.07
2023-01-15T09:35:10.713Z,51.23
2023-01-15T09:36:10.674Z,48.67
2023-01-15T09:37:10.681Z,52.89
2023-01-15T09:38:10.669Z,50.89
2023-01-15T09:39:10.663Z,50.07
2023-01-15T09:40:10.674Z,48.59
2023-01-15T09:41:10.644Z,50.26
2023-01-15T09:42:10.701Z,48.18
2023-01-15T09:43:10.649Z,49.32
2023-01-15T09:44:10.623Z,53.00
2023-01-15T09:45:10.643Z,50.26
2023-01-15T09:46:10.648Z,51.97
2023-01-15T09:47:10.592Z,52.35
2023-01-15T09:48:10.592Z,50.52
2023-01-15T09:49:10.597Z,50.56
2023-01-15T09:50:10.624Z,52.61
2023-01-15T09:51:10.598Z,52.37
2023-01-15T09:52:10.563Z,53.36
2023-01-15T09:53:10.555Z,51.17
2023-01-15T09:54:10.552Z,55.55
2023-01-15T09:55:10.593Z,51.28
2023-01-15T09:56:10.536Z,52.41
2023-01-15T09:57:10.520Z,52.86
2023-01-15T09:58:10.516Z,50.65
2023-01-15T09:59:10.510Z,50.91
2023-01-15T10:00:10.562Z,52.24
2023-01-15T10:01:10.577Z,53.90
2023-01-15T10:02:10.498Z,57.84
2023-01-15T10:03:10.490Z,55.04
2023-01-15T10:04:10.490Z,48.81
2023-01-15T10:05:10.458Z,53.39
2023-01-15T10:06:10.482Z,54.49
2023-01-15T10:07:10.444Z,54.01
2023-01-15T10:08:10.443Z,52.75
2023-01-15T10:09:10.457Z,52.79
2023-01-15T10:10:10.417Z,52.76
2023-01-15T10:11:10.439Z,50.00
2023-01-15T10:12:10.402Z,51.53
2023-01-15T10:13:10.401Z,56.00
2023-01-15T10:14:10.388Z,50.78
2023-01-15T10:15:10.383Z,51.54
2023-01-15T10:16:10.436Z,49.78
2023-01-15T10:17:10.373Z,48.40
2023-01-15T10:18:10.360Z,53.00
2023-01-15T10:19:10.354Z,58.80
2023-01-15T10:20:10.347Z,54.33
2023-01-15T10:21:10.373Z,51.85
2023-01-15T10:22:10.329Z,49.92
2023-01-15T10:23:10.318Z,48.78
2023-01-15T10:24:10.584Z,53.93
2023-01-15T10:25:10.304Z,53.72
2023-01-15T10:26:10.329Z,55.97
2023-01-15T10:27:10.303Z,57.68
2023-01-15T10:28:10.291Z,52.34
2023-01-15T10:29:10.274Z,54.65
2023-01-15T10:30:10.348Z,52.78
2023-01-15T10:31:10.312Z,49.86
2023-01-15T10:32:10.257Z,53.03
2023-01-15T10:33:10.249Z,52.24
2023-01-15T10:34:10.247Z,49.47
2023-01-15T10:35:10.238Z,53.53
2023-01-15T10:36:10.263Z,54.45
2023-01-15T10:37:10.218Z,55.39
2023-01-15T10:38:10.208Z,55.68
2023-01-15T10:39:42.727Z,47.52
2023-01-15T10:40:10.200Z,56.33
2023-01-15T10:41:10.215Z,56.14
2023-01-15T10:42:10.192Z,52.56
2023-01-15T10:43:10.193Z,49.08
2023-01-15T10:44:11.166Z,54.27
2023-01-15T10:45:10.237Z,51.37
2023-01-15T10:46:10.298Z,54.85
2023-01-15T10:47:10.148Z,60.02
2023-01-15T10:48:10.123Z,58.27
2023-01-15T10:49:11.124Z,55.57
2023-01-15T10:50:10.199Z,56.29
2023-01-15T10:51:10.213Z,55.16
2023-01-15T10:52:10.114Z,51.04
2023-01-15T10:53:10.098Z,54.32
2023-01-15T10:54:10.087Z,55.68
2023-01-15T10:55:10.090Z,54.62
2023-01-15T10:56:10.145Z,51.68
2023-01-15T10:57:10.077Z,55.89
2023-01-15T10:58:11.070Z,52.51
2023-01-15T10:59:11.057Z,56.03
2023-01-15T11:00:10.137Z,52.97
2023-01-15T11:01:10.164Z,49.48
2023-01-15T11:02:10.210Z,56.77
2023-01-15T11:03:10.070Z,55.76
2023-01-15T11:04:10.113Z,57.21
2023-01-15T11:05:10.016Z,59.33
2023-01-15T11:06:10.233Z,56.45
2023-01-15T11:07:10.026Z,59.42
2023-01-15T11:08:45.228Z,53.29
2023-01-15T11:09:12.436Z,55.93
2023-01-15T11:10:11.230Z,60.00
2023-01-15T11:11:10.250Z,52.59
2023-01-15T11:12:09.968Z,57.06
2023-01-15T11:13:09.949Z,57.21
2023-01-15T11:14:10.952Z,51.99
2023-01-15T11:15:09.979Z,52.16
2023-01-15T11:16:10.000Z,54.00
2023-01-15T11:17:09.920Z,52.70
2023-01-15T11:18:09.926Z,53.22
2023-01-15T11:19:09.911Z,56.42
2023-01-15T11:20:09.892Z,51.94
2023-01-15T11:21:09.885Z,48.89
2023-01-15T11:22:09.911Z,52.56
2023-01-15T11:23:09.871Z,56.33
2023-01-15T11:24:09.876Z,57.29
2023-01-15T11:25:09.866Z,53.42
2023-01-15T11:26:09.864Z,55.62
2023-01-15T11:27:09.865Z,53.33
2023-01-15T11:28:09.841Z,52.31
2023-01-15T11:29:09.850Z,53.46
2023-01-15T11:30:09.831Z,51.33
2023-01-15T11:31:09.976Z,55.23
2023-01-15T11:32:09.857Z,52.06
2023-01-15T11:33:09.794Z,52.97
2023-01-15T11:34:09.793Z,50.22
2023-01-15T11:35:09.772Z,55.57
2023-01-15T11:36:09.768Z,56.90
2023-01-15T11:37:09.792Z,51.95
2023-01-15T11:38:09.766Z,50.72
2023-01-15T11:39:09.752Z,54.18
2023-01-15T11:40:09.750Z,50.99
2023-01-15T11:41:09.731Z,56.18
2023-01-15T11:42:09.743Z,54.82
2023-01-15T11:43:09.762Z,49.60
2023-01-15T11:44:09.732Z,54.44
2023-01-15T11:45:09.707Z,49.84
2023-01-15T11:46:09.773Z,57.06
2023-01-15T11:47:09.715Z,52.99
2023-01-15T11:48:09.703Z,53.79
2023-01-15T11:49:09.672Z,55.60
2023-01-15T11:50:09.672Z,54.13
2023-01-15T11:51:09.653Z,52.03
2023-01-15T11:52:09.680Z,54.65
2023-01-15T11:53:09.638Z,51.55
2023-01-15T11:54:09.635Z,50.22
2023-01-15T11:55:09.624Z,54.40
2023-01-15T11:56:09.630Z,52.33
2023-01-15T11:57:09.652Z,53.53
2023-01-15T11:58:09.599Z,52.07
2023-01-15T11:59:09.595Z,50.00
2023-01-15T12:00:09.583Z,52.05
2023-01-15T12:01:09.607Z,52.48
2023-01-15T12:02:09.610Z,52.57
2023-01-15T12:03:09.564Z,51.63
2023-01-15T12:04:09.633Z,49.34
2023-01-15T12:05:09.555Z,52.49
2023-01-15T12:06:09.558Z,54.30
2023-01-15T12:07:09.586Z,55.29
2023-01-15T12:08:09.533Z,50.44
2023-01-15T12:09:09.522Z,51.16
2023-01-15T12:10:09.522Z,49.60
2023-01-15T12:11:25.565Z,54.31
2023-01-15T12:12:11.530Z,55.07
2023-01-15T12:13:09.505Z,52.00
2023-01-15T12:14:09.503Z,55.54
2023-01-15T12:15:09.484Z,49.13
2023-01-15T12:16:09.511Z,52.87
2023-01-15T12:17:09.530Z,51.05
2023-01-15T12:18:09.464Z,54.25
2023-01-15T12:19:09.456Z,52.61
2023-01-15T12:20:09.455Z,51.83
2023-01-15T12:21:09.441Z,51.80
2023-01-15T12:22:09.456Z,52.39
2023-01-15T12:23:09.419Z,57.55
2023-01-15T12:24:09.424Z,50.74
2023-01-15T12:25:09.406Z,52.13
2023-01-15T12:26:09.402Z,54.50
2023-01-15T12:27:09.435Z,55.44
2023-01-15T12:28:09.393Z,51.79
2023-01-15T12:29:09.377Z,48.63
2023-01-15T12:30:09.381Z,57.29
2023-01-15T12:31:09.390Z,52.85
2023-01-15T12:32:09.382Z,53.33
2023-01-15T12:33:09.352Z,50.85
2023-01-15T12:34:09.334Z,53.33
2023-01-15T12:35:09.345Z,48.24
2023-01-15T12:36:09.342Z,50.06
2023-01-15T12:37:09.316Z,53.56
2023-01-15T12:38:10.581Z,52.59
2023-01-15T12:39:09.307Z,54.59
2023-01-15T12:40:09.295Z,50.61
2023-01-15T12:41:09.289Z,52.39
2023-01-15T12:42:09.289Z,51.72
2023-01-15T12:43:09.290Z,56.26
2023-01-15T12:44:09.261Z,53.91
2023-01-15T12:45:09.276Z,59.12
2023-01-15T12:46:09.244Z,52.59
2023-01-15T12:47:09.238Z,53.09
2023-01-15T12:48:09.260Z,53.99
2023-01-15T12:49:09.242Z,52.20
2023-01-15T12:50:09.221Z,51.75
2023-01-15T12:51:09.239Z,51.07
2023-01-15T12:52:09.203Z,52.12